createdAt,value
2022-09-26T00:05:39.417Z,74269.34
2022-09-26T00:15:46.160Z,74259.25
2022-09-26T00:25:52.977Z,74249.13
2022-09-26T00:35:57.006Z,74259.25
2022-09-26T00:46:37.693Z,74251.16
2022-09-26T00:56:43.890Z,74295.66
2022-09-26T01:06:46.076Z,74297.69
2022-09-26T01:16:51.620Z,74305.78
2022-09-26T01:27:26.038Z,74332.06
2022-09-26T01:37:49.536Z,74340.16
2022-09-26T01:48:08.329Z,74350.28
2022-09-26T01:58:16.640Z,74366.47
2022-09-26T02:08:36.516Z,74378.59
2022-09-26T02:18:50.365Z,74392.78
2022-09-26T02:28:55.037Z,74410.97
2022-09-26T02:38:59.924Z,74417.03
2022-09-26T02:49:25.567Z,74423.13
2022-09-26T02:59:51.926Z,74435.25
2022-09-26T03:10:00.843Z,74443.34
2022-09-26T03:20:17.545Z,74461.56
2022-09-26T03:30:21.299Z,74477.75
2022-09-26T03:40:43.920Z,74500.00
2022-09-26T03:51:17.114Z,74514.16
2022-09-26T04:01:21.475Z,74526.28
2022-09-26T04:11:24.807Z,74538.44
2022-09-26T04:21:28.740Z,74548.56
2022-09-26T04:31:30.922Z,74552.59
2022-09-26T04:41:43.644Z,74576.88
2022-09-26T04:51:49.610Z,74540.47
2022-09-26T05:01:52.115Z,74512.13
2022-09-26T05:12:05.521Z,74524.28
2022-09-26T05:22:09.463Z,74457.50
2022-09-26T05:32:17.856Z,74392.78
2022-09-26T05:42:27.624Z,74301.72
2022-09-26T05:52:32.822Z,74123.69
2022-09-26T06:02:40.050Z,73984.13
2022-09-26T06:12:51.399Z,73917.34
2022-09-26T06:22:57.670Z,73990.19
2022-09-26T06:33:04.840Z,73931.53
2022-09-26T06:43:27.167Z,73889.03
2022-09-26T06:53:52.527Z,73836.44
2022-09-26T07:04:01.585Z,73856.69
2022-09-26T07:14:17.070Z,73812.16
2022-09-26T07:24:28.288Z,73800.03
2022-09-26T07:34:31.771Z,73706.97
2022-09-26T07:55:01.398Z,73593.72
2022-09-26T08:05:33.429Z,73609.91
2022-09-26T08:15:39.155Z,73632.16
2022-09-26T08:25:46.323Z,73666.53
2022-09-26T08:36:14.249Z,73662.47
2022-09-26T08:47:05.044Z,73662.47
2022-09-26T08:57:53.308Z,73700.91
2022-09-26T09:08:00.502Z,73749.47
2022-09-26T09:18:47.498Z,73759.56
2022-09-26T09:29:32.147Z,73755.53
2022-09-26T09:39:53.333Z,73749.47
2022-09-26T09:50:12.983Z,73719.13
2022-09-26T10:00:23.047Z,73721.16
2022-09-26T10:11:01.058Z,73660.47
2022-09-26T10:21:27.671Z,73545.16
2022-09-26T10:31:42.341Z,73496.63
2022-09-26T10:41:58.016Z,73561.34
2022-09-26T10:52:17.598Z,73476.41
2022-09-26T11:02:23.275Z,73440.00
2022-09-26T11:12:30.740Z,73435.94
2022-09-26T11:22:53.395Z,73488.53
2022-09-26T11:33:00.555Z,73482.47
2022-09-26T11:43:59.197Z,73464.25
2022-09-26T11:54:36.214Z,73435.94
2022-09-26T12:05:04.196Z,73415.72
2022-09-26T12:15:27.652Z,73391.44
2022-09-26T12:25:37.650Z,73409.66
2022-09-26T12:35:45.773Z,73389.41
2022-09-26T12:46:07.767Z,73391.44
2022-09-26T12:56:23.224Z,73365.16
2022-09-26T13:06:57.010Z,73353.00
2022-09-26T13:17:10.386Z,73361.09
2022-09-26T13:27:30.149Z,73369.19
2022-09-26T13:38:00.772Z,73324.69
2022-09-26T13:48:26.048Z,73322.69
2022-09-26T13:58:39.793Z,73302.44
2022-09-26T14:09:32.748Z,73318.63
2022-09-26T14:19:49.921Z,73310.53
2022-09-26T14:29:59.575Z,73330.75
2022-09-26T14:40:10.558Z,73338.84
2022-09-26T14:50:22.491Z,73351.00
2022-09-26T15:00:40.608Z,73369.19
2022-09-26T15:10:48.099Z,73375.25
2022-09-26T15:20:52.836Z,73371.22
2022-09-26T15:31:26.099Z,73379.31
2022-09-26T15:41:48.012Z,73452.13
2022-09-26T15:51:57.087Z,73488.53
2022-09-26T16:02:00.475Z,73508.75
2022-09-26T16:12:12.967Z,73524.94
2022-09-26T16:22:25.469Z,73545.16
2022-09-26T16:32:32.269Z,73541.13
2022-09-26T16:42:36.991Z,73555.28
2022-09-26T16:52:40.074Z,73555.28
2022-09-26T17:02:45.009Z,73541.13
2022-09-26T17:12:53.330Z,73539.09
2022-09-26T17:22:55.455Z,73541.13
2022-09-26T17:32:59.990Z,73565.41
2022-09-26T17:43:02.184Z,73587.66
2022-09-26T17:53:08.798Z,73599.78
2022-09-26T18:03:19.280Z,73605.84
2022-09-26T18:13:27.465Z,73599.78
2022-09-26T18:23:43.125Z,73603.81
2022-09-26T18:33:46.522Z,73605.84
2022-09-26T18:43:52.511Z,73686.75
2022-09-26T18:53:56.694Z,73717.09
2022-09-26T19:04:07.332Z,73735.31
2022-09-26T19:14:18.213Z,73779.81
2022-09-26T19:24:39.410Z,73820.25
2022-09-26T19:34:41.846Z,73856.69
2022-09-26T19:44:44.146Z,73864.75
2022-09-26T19:54:49.616Z,73856.69
2022-09-26T20:04:51.939Z,73860.72
2022-09-26T20:14:57.367Z,73880.94
2022-09-26T20:24:59.711Z,73885.00
2022-09-26T20:35:07.930Z,73885.00
2022-09-26T20:45:16.563Z,73893.09
2022-09-26T20:55:21.756Z,73901.19
2022-09-26T21:05:27.794Z,73905.22
2022-09-26T21:15:33.206Z,73909.28
2022-09-26T21:25:37.962Z,73917.34
2022-09-26T21:35:40.708Z,73901.19
2022-09-26T21:45:44.513Z,73897.13
2022-09-26T21:55:55.369Z,73891.06
2022-09-26T22:05:57.944Z,73822.28
2022-09-26T22:16:11.450Z,73852.63
2022-09-26T22:26:18.966Z,73856.69
2022-09-26T22:36:27.924Z,73872.84
2022-09-26T22:46:34.553Z,73872.84
2022-09-26T22:56:37.980Z,73876.91
2022-09-26T23:06:44.090Z,73880.94
2022-09-26T23:16:46.136Z,73882.97
2022-09-26T23:26:48.372Z,73880.94
2022-09-26T23:36:52.788Z,73889.03
2022-09-26T23:46:54.736Z,73882.97
2022-09-26T23:56:56.666Z,73874.88
